• Join FlightAware (Why Join?)
  • Login
  • US Flag 
08:14PM EDT


 

Airport Tracker/Info


-or-


 

Live Flight TrackerFlight Track Log ✈ FLG3735 ✈ 28-Jun-2013 ✈ KDTW - KALB

Flight Track Log - Related Links

Times and Time Zones

All times are in EDT time to prevent confusion due to time zone crossing. See the FLG3735 flight status page for this flight to view local times or setup timezone preferences in your user account.

Time Position Orientation Groundspeed Altitude Reporting Facility
EDT Latitude Longitude Course Direction KTS MPH feet Rate Location/Type
10:44PM 42.1994 -83.3581 82° East 166 191 1,200  Level Cleveland Center
10:46PM 42.1142 -83.3544 178° South 227 261 4,000 1,800 Climbing Cleveland Center
10:46PM 42.0600 -83.3492 176° South 282 325 5,500 2,100 Climbing Cleveland Center
10:47PM 42.2854 -82.9065 75° East  Level FlightAware Approximate
10:48PM 42.3149 -82.7589 75° East  Level FlightAware Approximate
10:48PM 42.0356 -83.2419 107° East 285 328 8,100  Level Cleveland Center
10:48PM 42.0425 -83.2114 73° East 294 338 8,700 1,680 Climbing Cleveland Center
10:49PM 42.3309 -82.6075 82° East  Level FlightAware Approximate
10:49PM 42.0886 -83.1069 59° Northeast 299 344 10,700  Level Cleveland Center
10:50PM 42.1344 -83.0025 59° Northeast 304 350 12,200 1,620 Climbing Cleveland Center
10:51PM 42.1806 -82.8919 61° Northeast 321 369 14,000 1,560 Climbing Cleveland Center
10:52PM 42.2081 -82.7642 74° East 334 384 15,400 1,200 Climbing Cleveland Center
10:53PM 42.2211 -82.6272 83° East 352 405 16,500 1,140 Climbing Cleveland Center
10:54PM 42.2339 -82.4872 83° East 358 412 17,700 1,200 Climbing Cleveland Center
10:55PM 42.2467 -82.3475 83° East 371 427 18,900 900 Climbing Cleveland Center
10:56PM 42.2633 -82.1992 81° East 382 440 19,600 780 Climbing Cleveland Center
10:57PM 42.2758 -82.0536 83° East 392 451 20,500 840 Climbing Cleveland Center
10:58PM 42.2922 -81.8997 82° East 399 459 21,300 660 Climbing Cleveland Center
10:59PM 42.3064 -81.7511 83° East 399 459 21,900 660 Climbing Cleveland Center
11:00PM 42.3181 -81.6025 84° East 404 465 22,700 660 Climbing Cleveland Center
11:01PM 42.3342 -81.4342 83° East 404 465 23,300 540 Climbing Cleveland Center
11:02PM 42.3475 -81.2828 83° East 409 471 23,800 540 Climbing Cleveland Center
11:03PM 42.3608 -81.1283 83° East 404 465 24,400 540 Climbing Cleveland Center
11:04PM 42.3742 -80.9739 83° East 404 465 24,900 300 Climbing Cleveland Center
11:05PM 42.3869 -80.8192 84° East 410 472 25,000  Climbing Cleveland Center
11:06PM 42.3997 -80.6564 84° East 418 481 25,000  Level Cleveland Center
11:07PM 42.4122 -80.4961 84° East 428 493 25,000  Level Cleveland Center
11:08PM 42.4244 -80.3300 84° East 433 498 25,000  Level Cleveland Center
11:09PM 42.4386 -80.1894 82° East 428 493 25,000  Level Cleveland Center
11:10PM 42.4506 -80.0289 84° East 422 486 25,000  Level Cleveland Center
11:11PM 42.4683 -79.8514 82° East 422 486 25,000  Level Cleveland Center
11:12PM 42.4775 -79.6936 85° East 422 486 25,000  Level Cleveland Center
11:13PM 42.4867 -79.5303 86° East 422 486 25,000  Level Cleveland Center
11:14PM 42.4997 -79.3694 84° East 427 491 25,000  Level Cleveland Center
11:15PM 42.5083 -79.2031 86° East 427 491 25,000  Level Cleveland Center
11:16PM 42.5208 -79.0394 84° East 427 491 25,000  Level Cleveland Center
11:17PM 42.5331 -78.8756 84° East 427 491 25,000  Level Cleveland Center
11:18PM 42.5431 -78.7092 85° East 427 491 25,000  Level Cleveland Center
11:19PM 42.5528 -78.5453 85° East 433 498 25,000  Level Cleveland Center
11:20PM 42.5622 -78.3758 86° East 439 505 25,000  Level Cleveland Center
11:21PM 42.5733 -78.2092 85° East 444 511 25,000  Level Cleveland Center
11:22PM 42.5844 -78.0394 85° East 444 511 25,000  Level Cleveland Center
11:23PM 42.5931 -77.8728 86° East 444 511 25,000  Level Cleveland Center
11:24PM 42.5978 -77.7231 87° East 449 517 25,000  Level Cleveland Center
11:25PM 42.6103 -77.5561 84° East 443 510 25,000  Level Cleveland Center
11:26PM 42.6181 -77.3836 86° East 443 510 25,000  Level Cleveland Center
11:28PM 42.6347 -77.0892 86° East 463 533 25,000  Level Boston Center
11:29PM 42.6414 -76.9172 87° East 458 527 25,000  Level Boston Center
11:30PM 42.6489 -76.7822 86° East 458 527 25,000  Level Boston Center
11:31PM 42.6586 -76.5767 86° East 458 527 25,000  Level Boston Center
11:32PM 42.6667 -76.4078 86° East 458 527 25,000  Level Boston Center
11:33PM 42.6714 -76.2725 87° East 453 521 25,000  Level Boston Center
11:34PM 42.6800 -76.0725 87° East 448 516 25,000  Level Boston Center
11:35PM 42.6856 -75.8975 87° East 448 516 25,000  Level Boston Center
11:36PM 42.6925 -75.7311 87° East 448 516 25,000 -60 Level Boston Center
11:37PM 42.6994 -75.5536 87° East 454 522 24,900 -1,140 Descending Boston Center
11:38PM 42.7061 -75.3872 87° East 459 528 22,800 -2,160 Descending Boston Center
11:39PM 42.7103 -75.2206 88° East 454 522 20,600 -2,160 Descending Boston Center
11:40PM 42.7158 -75.0794 87° East 434 499 18,500 -2,220 Descending Boston Center
11:41PM 42.7192 -74.9269 88° East 418 481 16,200 -2,160 Descending Boston Center
11:42PM 42.7228 -74.7606 88° East 402 463 14,200 -1,860 Descending Boston Center
11:43PM 42.7306 -74.5714 87° East 377 434 11,800 -1,560 Descending Boston Center
11:44PM 42.7300 -74.4808 90° East 367 422 11,100 -720 Descending Boston Center
11:45PM 42.7303 -74.3536 90° East 355 409 10,700 -1,020 Descending Boston Center
11:46PM 42.6944 -74.2481 115° Southeast 313 360 9,100 -1,800 Descending Boston Center
11:47PM 42.6647 -74.1483 112° Southeast 290 334 7,100 -2,040 Descending Boston Center
11:48PM 42.6408 -74.0686 112° Southeast 272 313 5,100 -1,560 Descending Boston Center
11:49PM 42.6131 -73.9833 114° Southeast 255 293 4,000 -600 Descending Boston Center
11:50PM 42.5911 -73.8953 109° East 233 268 3,900 -660 Descending Boston Center
11:51PM 42.5878 -73.8247 94° East 220 253 2,600 -1,140 Descending Boston Center